x

Southern Lake Huron (45149) Weather Station

11:00am - Mon 26th Jun 2017 All times are CDT. -5 hours from GMT.

  • Wind
    13mph, 16mph gusts
  • Sea Temp 61°f
  • Air Temp 60°f
  • Sea Pressure 1015.2mb
  • Southern Lake Huron
  • Southern Lake Huron

More Historic Weather Station data

Upgrade to MSW Pro to gain access to the past 30 days of data for over 8000 Wavebouys and Weather Stations around the globe.

Join Pro

Comparision Forecast

View Surf forecast
   
Mon 06/26 11:00am 13 16 mph 1015.2mb 61f 60f
10:00am 18 22 mph 1015.2mb 61f 59f
9:00am 16 18 mph 1015.4mb 61f 59f
8:00am 16 18 mph 1015.2mb 61f 59f
7:00am 13 18 mph 1015mb 61f 59f
6:00am 16 18 mph 1015.1mb 61f 59f
5:00am 13 16 mph 1015mb 61f 60f
4:00am 11 13 mph 1014.8mb 61f 60f
3:00am 9 13 mph 1014.8mb 61f 60f
2:00am 11 13 mph 1015mb 61f 60f
1:00am 11 13 mph 1015.3mb 61f 60f
12:00am 16 20 mph 1015.6mb 61f 60f
Sun 06/25 11:00pm 13 18 mph 1015.5mb 61f 61f
10:00pm 16 18 mph 1015.6mb 61f 61f
9:00pm 13 18 mph 1015.5mb 61f 61f
8:00pm 18 22 mph 1015.2mb 61f 62f
7:00pm 13 16 mph 1015mb 61f 62f
6:00pm 13 16 mph 1015mb 61f 63f
5:00pm 9 11 mph 1015.1mb 61f 63f
4:00pm 9 11 mph 1015.3mb 61f 62f
3:00pm 13 16 mph 1015.2mb 61f 61f
2:00pm 20 25 mph 1015.1mb 61f 61f
1:00pm 9 9 mph 1015mb 61f 62f
12:00pm 13 18 mph 1015.2mb 61f 60f
11:00am 16 20 mph 1015mb 61f 61f
10:00am 16 20 mph 1014.5mb 61f 60f
9:00am 18 20 mph 1014.4mb 61f 60f
8:00am 18 22 mph 1014.1mb 61f 60f
7:00am 22 27 mph 1013.9mb 61f 61f
6:00am 18 20 mph 1013.6mb 61f 61f
5:00am 16 18 mph 1013.3mb 61f 61f
4:00am 13 18 mph 1013.4mb 61f 61f
3:00am 13 16 mph 1013.6mb 61f 61f
2:00am 11 13 mph 1014.2mb 61f 61f
1:00am 11 13 mph 1014.2mb 61f 62f
12:00am 11 13 mph 1014.2mb 61f 62f
Sat 06/24 11:00pm 9 11 mph 1014.1mb 61f 62f
10:00pm 11 13 mph 1013.7mb 61f 62f
9:00pm 13 16 mph 1013mb 61f 63f
8:00pm 11 13 mph 1012.3mb 62f 64f
7:00pm 7 9 mph 1012.1mb 62f 64f
6:00pm 9 9 mph 1011.8mb 62f 65f
5:00pm 4 7 mph 1011.7mb 62f 63f
4:00pm 2 4 mph 1011.4mb 62f 63f
3:00pm 4 7 mph 1010.7mb 62f 63f
2:00pm 7 9 mph 1010.6mb 62f 62f
1:00pm 13 20 mph 1010.8mb 62f 62f
12:00pm 4 7 mph 1010.4mb 62f 63f
11:00am 4 7 mph 1009.9mb 62f 62f
10:00am 4 7 mph 1009.6mb 61f 62f
9:00am 4 7 mph 1009.4mb 61f 62f
8:00am 7 9 mph 1008.9mb 61f 61f
7:00am 9 11 mph 1008.3mb 61f 61f
6:00am 9 9 mph 1007.6mb 61f 61f
5:00am 11 11 mph 1006.9mb 61f 61f
4:00am 11 13 mph 1005.8mb 61f 62f
3:00am 7 9 mph 1005.7mb 61f 61f
2:00am  -  2 mph 1005.3mb 62f 62f
1:00am 2 4 mph 1005.3mb 62f 62f
12:00am 4 7 mph 1005.1mb 62f 62f
Fri 06/23 11:00pm 2 4 mph 1004.4mb 62f 62f
10:00pm 4 4 mph 1004.3mb 62f 62f
9:00pm 2 2 mph 1003.4mb 62f 63f
8:00pm  -  0 mph 1002.7mb 62f 64f
7:00pm  -  2 mph 1002.4mb 62f 64f
6:00pm 4 4 mph 1001.8mb 62f 64f
5:00pm 4 4 mph 1001.9mb 62f 64f
4:00pm 4 7 mph 1001.7mb 62f 64f
3:00pm 9 11 mph 1001.7mb 62f 64f
2:00pm 4 7 mph 1001.9mb 62f 64f
1:00pm 9 11 mph 1001.2mb 61f 63f
12:00pm 2 2 mph 1000.2mb 61f 63f
11:00am 16 18 mph 1000.4mb 60f 63f
10:00am 9 11 mph 1002.5mb 60f 62f
9:00am 9 11 mph 1002.7mb 60f 63f
8:00am 2 4 mph 1002.9mb 60f 62f
7:00am 4 9 mph 1003.4mb 60f 62f
6:00am 9 11 mph 1003.3mb 60f 62f
5:00am 4 7 mph 1004.6mb 60f 62f
4:00am 2 7 mph 1004.3mb 60f 63f
3:00am 13 13 mph 1003.5mb 60f 65f
2:00am 7 9 mph 1004.8mb 61f 65f
1:00am 9 11 mph 1006.3mb 60f 65f
12:00am 9 18 mph 1006.6mb 60f 67f
Thu 06/22 11:00pm 13 18 mph 1006.9mb 60f 66f
10:00pm 18 20 mph 1006.3mb 60f 67f
9:00pm 11 13 mph 1007.3mb 60f 67f
8:00pm 11 11 mph 1007.1mb 60f 67f
7:00pm 9 11 mph 1007.1mb 60f 66f
6:00pm 9 11 mph 1007.6mb 60f 67f